Time;durP1;ratioP1;P1;durP2;ratioP2;P2;SDS_P1;SDS_P2;PMS_P1;PMS_P2;Temp;Humidity;BMP_temperature;BMP_pressure;BME280_temperature;BME280_humidity;BME280_pressure;Samples;Min_cycle;Max_cycle;Signal;HPM_P1;HPM_P2
2023/08/05 00:03:22;;;;;;;4.90;2.17;;;12.80;99.90;;;;;;7375357;32;20305;-57
2023/08/05 00:07:24;;;;;;;13.80;2.60;;;12.80;99.90;;;;;;7357341;32;20504;-56
2023/08/05 00:11:26;;;;;;;7.25;2.75;;;12.70;99.90;;;;;;7377479;32;20229;-57
2023/08/05 00:15:28;;;;;;;7.72;2.58;;;12.60;99.90;;;;;;7356538;32;20200;-56
2023/08/05 00:19:30;;;;;;;5.25;2.33;;;12.60;99.90;;;;;;7367753;32;20124;-56
2023/08/05 00:23:31;;;;;;;4.72;2.35;;;12.60;99.90;;;;;;7379823;32;20455;-56
2023/08/05 00:27:33;;;;;;;3.10;2.15;;;12.50;99.90;;;;;;7364615;32;20223;-57
2023/08/05 00:31:35;;;;;;;7.07;2.22;;;12.50;99.90;;;;;;7357129;32;20125;-57
2023/08/05 00:35:38;;;;;;;7.18;2.08;;;12.50;99.90;;;;;;7366069;32;20126;-57
2023/08/05 00:39:39;;;;;;;6.68;2.17;;;12.50;99.90;;;;;;7356391;32;20164;-57
2023/08/05 00:43:41;;;;;;;4.60;2.10;;;12.50;99.90;;;;;;7362658;32;20103;-58
2023/08/05 00:47:43;;;;;;;4.47;2.15;;;12.50;99.90;;;;;;7360924;32;20203;-57
2023/08/05 00:51:45;;;;;;;3.85;2.10;;;12.50;99.90;;;;;;7368980;32;20501;-57
2023/08/05 00:55:48;;;;;;;4.68;2.20;;;12.40;99.90;;;;;;7373169;32;20121;-57
2023/08/05 00:59:50;;;;;;;3.00;2.30;;;12.40;99.90;;;;;;7366845;32;20133;-57
2023/08/05 01:03:51;;;;;;;5.97;2.30;;;12.40;99.90;;;;;;7373312;32;20131;-57
2023/08/05 01:07:54;;;;;;;4.40;2.17;;;12.40;99.90;;;;;;7359406;32;20216;-57
2023/08/05 01:11:56;;;;;;;6.25;2.28;;;12.30;99.90;;;;;;7360121;32;20102;-57
2023/08/05 01:15:58;;;;;;;8.50;2.00;;;12.40;99.90;;;;;;7355496;32;20154;-57
2023/08/05 01:20:01;;;;;;;2.70;1.77;;;12.30;99.90;;;;;;7359307;32;20398;-56
2023/08/05 01:24:06;;;;;;;6.35;2.37;;;12.30;99.90;;;;;;7353696;32;20186;-56
2023/08/05 01:28:09;;;;;;;5.65;2.20;;;12.20;99.90;;;;;;7356736;32;20118;-57
2023/08/05 01:32:12;;;;;;;4.93;2.50;;;12.20;99.90;;;;;;7358309;32;20277;-57
2023/08/05 01:36:21;;;;;;;7.43;2.05;;;12.20;99.90;;;;;;7355259;32;20133;-57
2023/08/05 01:40:28;;;;;;;4.18;2.60;;;12.20;99.90;;;;;;7362979;32;20603;-57
2023/08/05 01:44:29;;;;;;;4.20;2.37;;;12.10;99.90;;;;;;7357501;32;20099;-57
2023/08/05 01:48:31;;;;;;;4.05;2.00;;;12.00;99.90;;;;;;7360009;32;20099;-57
2023/08/05 01:52:33;;;;;;;6.20;2.20;;;12.00;99.90;;;;;;7355778;32;20155;-57
2023/08/05 01:56:34;;;;;;;6.18;2.37;;;12.00;99.90;;;;;;7366462;32;20608;-57
2023/08/05 02:00:36;;;;;;;4.65;2.53;;;11.90;99.90;;;;;;7362853;32;20095;-57
2023/08/05 02:04:38;;;;;;;2.97;2.17;;;11.90;99.90;;;;;;7372278;32;20115;-58
2023/08/05 02:08:40;;;;;;;8.10;2.65;;;12.00;99.90;;;;;;7364768;32;20267;-57
2023/08/05 02:12:41;;;;;;;5.65;2.33;;;11.90;99.90;;;;;;7357396;32;20401;-57
2023/08/05 02:16:43;;;;;;;3.10;1.73;;;11.90;99.90;;;;;;7367039;32;20220;-57
2023/08/05 02:20:45;;;;;;;4.68;2.30;;;11.90;99.90;;;;;;7363602;32;20110;-57
2023/08/05 02:24:47;;;;;;;3.70;2.20;;;11.80;99.90;;;;;;7360115;32;20554;-57
2023/08/05 02:28:49;;;;;;;7.22;2.83;;;11.80;99.90;;;;;;7366240;32;20275;-57
2023/08/05 02:32:50;;;;;;;5.15;2.72;;;11.70;99.90;;;;;;7361519;32;20206;-57
2023/08/05 02:36:52;;;;;;;5.57;2.80;;;11.80;99.90;;;;;;7368211;32;20162;-58
2023/08/05 02:40:55;;;;;;;3.72;2.40;;;11.70;99.90;;;;;;7360080;32;20194;-57
2023/08/05 02:44:56;;;;;;;3.08;2.53;;;11.70;99.90;;;;;;7362388;32;20103;-57
2023/08/05 02:48:58;;;;;;;5.60;2.50;;;11.60;99.90;;;;;;7372129;32;20098;-57
2023/08/05 02:53:00;;;;;;;2.58;2.33;;;11.70;99.90;;;;;;7361689;32;20142;-57
2023/08/05 02:57:02;;;;;;;3.28;2.65;;;11.70;99.90;;;;;;7369406;32;20491;-57
2023/08/05 03:01:11;;;;;;;4.75;2.40;;;11.70;99.90;;;;;;7368162;32;20649;-57
2023/08/05 03:05:12;;;;;;;5.53;2.78;;;11.70;99.90;;;;;;7366600;32;20274;-57
2023/08/05 03:09:14;;;;;;;4.85;2.58;;;11.70;99.90;;;;;;7367112;32;20217;-58
2023/08/05 03:13:16;;;;;;;4.28;2.58;;;11.80;99.90;;;;;;7362280;32;20103;-57
2023/08/05 03:17:20;;;;;;;4.80;2.60;;;11.70;99.90;;;;;;7351581;32;20251;-57
2023/08/05 03:21:21;;;;;;;4.50;2.20;;;11.70;99.90;;;;;;7359749;32;20612;-57
2023/08/05 03:25:25;;;;;;;4.87;2.28;;;11.70;99.90;;;;;;7375032;32;20095;-58
2023/08/05 03:29:27;;;;;;;5.40;2.67;;;11.70;99.90;;;;;;7373223;32;20099;-57
2023/08/05 03:33:29;;;;;;;5.65;2.10;;;11.70;99.90;;;;;;7358989;32;20115;-57
2023/08/05 03:37:30;;;;;;;3.60;2.30;;;11.60;99.90;;;;;;7361590;32;20112;-57
2023/08/05 03:41:33;;;;;;;6.55;2.95;;;11.60;99.90;;;;;;7364002;32;20123;-57
2023/08/05 03:45:35;;;;;;;4.53;3.08;;;11.60;99.90;;;;;;7364491;32;20112;-59
2023/08/05 03:49:38;;;;;;;4.28;2.85;;;11.60;99.90;;;;;;7370857;32;20103;-57
2023/08/05 03:53:40;;;;;;;6.40;3.00;;;11.60;99.90;;;;;;7372518;32;20108;-57
2023/08/05 03:57:42;;;;;;;4.22;2.78;;;11.50;99.90;;;;;;7360943;32;20178;-57
2023/08/05 04:01:44;;;;;;;4.37;2.75;;;11.50;99.90;;;;;;7356298;32;20192;-57
2023/08/05 04:05:47;;;;;;;7.35;3.00;;;11.40;99.90;;;;;;7372772;32;20103;-57
2023/08/05 04:09:49;;;;;;;6.35;3.05;;;11.40;99.90;;;;;;7369307;32;20119;-57
2023/08/05 04:13:52;;;;;;;8.32;3.25;;;11.40;99.90;;;;;;7373139;32;20094;-57
2023/08/05 04:17:59;;;;;;;5.25;2.50;;;11.40;99.90;;;;;;7361462;32;20221;-58
2023/08/05 04:22:01;;;;;;;6.85;3.10;;;11.30;99.90;;;;;;7368065;32;20576;-57
2023/08/05 04:26:04;;;;;;;10.77;3.37;;;11.40;99.90;;;;;;7365686;32;20111;-57
2023/08/05 04:30:07;;;;;;;8.52;3.58;;;11.40;99.90;;;;;;7366163;32;20221;-57
2023/08/05 04:34:09;;;;;;;4.68;3.65;;;11.50;99.90;;;;;;7362357;32;20666;-57
2023/08/05 04:38:11;;;;;;;6.55;3.83;;;11.60;99.90;;;;;;7362620;32;20174;-57
2023/08/05 04:42:13;;;;;;;8.15;3.62;;;11.60;99.90;;;;;;7361552;32;20154;-57
2023/08/05 04:46:15;;;;;;;6.03;3.97;;;11.80;99.90;;;;;;7367101;32;20596;-58
2023/08/05 04:50:17;;;;;;;6.60;4.70;;;12.00;99.90;;;;;;7363083;32;20562;-57
2023/08/05 04:54:18;;;;;;;7.05;4.12;;;12.20;99.90;;;;;;7367253;32;20116;-57
2023/08/05 04:58:20;;;;;;;6.90;4.32;;;12.60;99.90;;;;;;7363440;32;20110;-57
2023/08/05 05:02:22;;;;;;;4.68;3.70;;;12.60;99.90;;;;;;7365837;32;20107;-57
2023/08/05 05:06:24;;;;;;;7.05;3.92;;;12.90;99.90;;;;;;7348056;32;20107;-57
2023/08/05 05:10:26;;;;;;;6.18;4.40;;;13.40;99.90;;;;;;7363960;32;20133;-58
2023/08/05 05:14:33;;;;;;;6.75;3.30;;;13.70;99.90;;;;;;7365229;32;20103;-56
2023/08/05 05:18:34;;;;;;;4.18;3.30;;;14.10;99.90;;;;;;7361570;32;20301;-58
2023/08/05 05:22:36;;;;;;;5.57;3.50;;;14.20;99.90;;;;;;7363430;32;20094;-57
2023/08/05 05:26:38;;;;;;;6.72;4.70;;;14.30;99.90;;;;;;7358350;32;20099;-57
2023/08/05 05:30:39;;;;;;;9.25;5.93;;;14.50;99.90;;;;;;7364804;32;20503;-57
2023/08/05 05:34:41;;;;;;;9.30;8.23;;;14.50;99.90;;;;;;7369201;32;20150;-59
2023/08/05 05:38:43;;;;;;;13.02;10.25;;;14.60;99.90;;;;;;7362532;32;20219;-57
2023/08/05 05:42:45;;;;;;;17.37;10.75;;;14.70;99.90;;;;;;7359521;32;20327;-57
2023/08/05 05:46:46;;;;;;;13.70;11.30;;;14.70;99.90;;;;;;7358059;32;20149;-57
2023/08/05 05:50:51;;;;;;;22.52;13.02;;;14.70;99.90;;;;;;7362562;32;20210;-57
2023/08/05 05:54:54;;;;;;;20.98;15.02;;;14.80;99.90;;;;;;7366513;32;20095;-57
2023/08/05 05:58:56;;;;;;;22.45;15.57;;;14.90;99.90;;;;;;7368125;32;20130;-57
2023/08/05 06:02:58;;;;;;;22.00;16.45;;;15.10;99.90;;;;;;7372276;32;20173;-56
2023/08/05 06:07:01;;;;;;;22.42;15.13;;;15.20;99.90;;;;;;7373168;32;20449;-56
2023/08/05 06:11:03;;;;;;;18.30;13.20;;;15.30;99.90;;;;;;7368913;32;20201;-57
2023/08/05 06:15:07;;;;;;;17.60;13.05;;;15.20;99.90;;;;;;7365725;32;20254;-57
2023/08/05 06:19:09;;;;;;;15.05;13.32;;;15.10;99.90;;;;;;7365194;32;20123;-56
2023/08/05 06:23:11;;;;;;;18.23;13.60;;;15.20;99.90;;;;;;7369837;32;20150;-57
2023/08/05 06:27:12;;;;;;;18.85;14.15;;;15.20;99.90;;;;;;7366404;32;20119;-57
2023/08/05 06:31:16;;;;;;;18.85;13.77;;;15.20;99.90;;;;;;7371428;32;20182;-57
2023/08/05 06:35:18;;;;;;;18.42;14.75;;;15.30;99.90;;;;;;7359540;32;20339;-58
2023/08/05 06:39:20;;;;;;;19.37;14.73;;;15.20;99.90;;;;;;7375003;32;20232;-58
2023/08/05 06:43:22;;;;;;;22.23;18.83;;;15.30;99.90;;;;;;7375674;32;20571;-58
2023/08/05 06:47:31;;;;;;;26.55;19.65;;;15.40;99.90;;;;;;7360974;32;20198;-58
2023/08/05 06:51:32;;;;;;;25.17;20.98;;;15.30;99.90;;;;;;7373523;32;20519;-58
2023/08/05 06:55:34;;;;;;;31.33;24.33;;;15.30;99.90;;;;;;7368050;32;20154;-57
2023/08/05 06:59:36;;;;;;;27.50;24.48;;;15.40;99.90;;;;;;7367643;32;20240;-57
2023/08/05 07:03:38;;;;;;;26.52;23.20;;;15.40;99.90;;;;;;7374039;32;20095;-57
2023/08/05 07:07:39;;;;;;;26.25;21.23;;;15.30;99.90;;;;;;7365296;32;20127;-58
2023/08/05 07:11:41;;;;;;;22.55;19.65;;;15.30;99.90;;;;;;7368994;32;20684;-57
2023/08/05 07:15:43;;;;;;;23.98;18.77;;;15.30;99.90;;;;;;7369042;32;20245;-58
2023/08/05 07:19:44;;;;;;;21.48;18.58;;;15.30;99.90;;;;;;7361385;32;20134;-58
2023/08/05 07:23:46;;;;;;;22.40;20.12;;;15.40;99.90;;;;;;7371229;32;20829;-57
2023/08/05 07:27:48;;;;;;;26.77;20.40;;;15.40;99.90;;;;;;7369728;32;20545;-58
2023/08/05 07:31:49;;;;;;;29.33;21.73;;;15.40;99.90;;;;;;7371729;32;20096;-58
2023/08/05 07:35:53;;;;;;;23.23;20.48;;;15.50;99.90;;;;;;7360188;32;20182;-58
2023/08/05 07:39:57;;;;;;;21.83;19.52;;;15.90;99.90;;;;;;7362878;32;20298;-58
2023/08/05 07:44:00;;;;;;;21.48;17.95;;;16.20;99.90;;;;;;7363312;32;20881;-58
2023/08/05 07:48:08;;;;;;;19.12;17.33;;;16.20;99.90;;;;;;7370831;32;20119;-57
2023/08/05 07:52:10;;;;;;;18.67;16.60;;;16.50;99.90;;;;;;7355965;32;21673;-59
2023/08/05 07:56:14;;;;;;;20.65;17.48;;;16.70;99.90;;;;;;7359846;32;20564;-57
2023/08/05 08:00:16;;;;;;;18.00;16.10;;;16.80;99.90;;;;;;7358076;32;20182;-57
2023/08/05 08:04:18;;;;;;;17.48;15.35;;;16.90;99.90;;;;;;7358860;32;20636;-57
2023/08/05 08:08:20;;;;;;;20.05;16.95;;;17.00;99.90;;;;;;7359136;32;20230;-58
2023/08/05 08:12:22;;;;;;;18.40;16.52;;;17.20;99.90;;;;;;7360018;32;20127;-58
2023/08/05 08:16:23;;;;;;;16.25;14.65;;;17.40;99.90;;;;;;7361102;32;20521;-58
2023/08/05 08:20:25;;;;;;;15.98;14.32;;;17.50;99.90;;;;;;7363540;32;20197;-58
2023/08/05 08:24:27;;;;;;;17.42;15.30;;;17.60;99.90;;;;;;7361698;32;20130;-58
2023/08/05 08:28:29;;;;;;;13.75;12.35;;;17.60;99.90;;;;;;7364084;32;20131;-57
2023/08/05 08:32:30;;;;;;;13.93;12.57;;;17.80;99.90;;;;;;7367899;32;20143;-58
2023/08/05 08:36:32;;;;;;;13.57;12.30;;;18.20;99.90;;;;;;7371100;32;20314;-58
2023/08/05 08:40:35;;;;;;;11.02;9.75;;;18.40;99.90;;;;;;7368015;32;20103;-58
2023/08/05 08:44:38;;;;;;;13.30;11.30;;;18.60;99.90;;;;;;7369453;32;20111;-58
2023/08/05 08:48:43;;;;;;;15.05;11.45;;;18.70;99.90;;;;;;7367168;32;20100;-58
2023/08/05 08:52:47;;;;;;;12.63;10.80;;;19.40;99.90;;;;;;7363300;32;20275;-58
2023/08/05 08:56:48;;;;;;;13.90;12.25;;;19.70;99.90;;;;;;7365585;32;20237;-58
2023/08/05 09:00:50;;;;;;;13.27;11.88;;;19.70;99.90;;;;;;7354629;32;20198;-63
2023/08/05 09:04:53;;;;;;;9.82;8.93;;;20.80;99.90;;;;;;7360195;32;20475;-63
2023/08/05 09:08:55;;;;;;;9.95;8.50;;;22.10;99.90;;;;;;7359956;32;20540;-58
2023/08/05 09:12:57;;;;;;;9.93;8.95;;;23.10;99.90;;;;;;7362309;32;20266;-58
2023/08/05 09:17:00;;;;;;;8.25;6.80;;;23.00;99.90;;;;;;7357901;32;20149;-58
2023/08/05 09:21:02;;;;;;;10.15;6.60;;;21.70;99.90;;;;;;7369423;32;20426;-58
2023/08/05 09:25:04;;;;;;;6.25;5.62;;;22.60;99.90;;;;;;7358202;32;20102;-58
2023/08/05 09:29:20;;;;;;;5.72;3.67;;;23.40;99.90;;;;;;7366819;32;20639;-59
2023/08/05 09:33:28;;;;;;;6.10;2.75;;;24.70;99.90;;;;;;7364180;32;20164;-58
2023/08/05 09:37:29;;;;;;;2.78;2.30;;;24.40;99.90;;;;;;7361032;32;20099;-58
2023/08/05 09:41:31;;;;;;;3.85;2.40;;;23.40;99.90;;;;;;7369133;32;20329;-58
2023/08/05 09:45:34;;;;;;;5.37;2.45;;;22.70;99.90;;;;;;7366761;32;20512;-59
2023/08/05 09:49:38;;;;;;;4.85;2.40;;;22.00;99.90;;;;;;7366796;32;20202;-58
2023/08/05 09:53:41;;;;;;;4.95;1.80;;;22.30;99.90;;;;;;7364880;32;20110;-58
2023/08/05 09:57:43;;;;;;;3.70;1.80;;;22.10;99.90;;;;;;7367978;32;20537;-58
2023/08/05 10:01:46;;;;;;;3.50;1.77;;;21.70;99.90;;;;;;7363173;32;20288;-59
2023/08/05 10:05:49;;;;;;;3.62;1.90;;;21.70;99.90;;;;;;7356222;32;20130;-59
2023/08/05 10:09:52;;;;;;;3.17;1.70;;;22.50;99.90;;;;;;7362878;32;20619;-58
2023/08/05 10:13:55;;;;;;;4.70;2.40;;;22.50;99.90;;;;;;7357627;32;20107;-59
2023/08/05 10:17:57;;;;;;;4.60;1.87;;;22.70;99.90;;;;;;7365220;32;20125;-58
2023/08/05 10:22:11;;;;;;;2.75;1.48;;;23.00;99.90;;;;;;7362967;32;20667;-58
2023/08/05 10:26:13;;;;;;;2.20;1.85;;;23.10;99.90;;;;;;7355920;32;20107;-59
2023/08/05 10:30:16;;;;;;;3.85;1.95;;;23.10;99.90;;;;;;7357630;32;20255;-59
2023/08/05 10:34:18;;;;;;;2.75;1.75;;;22.80;99.90;;;;;;7361083;32;20193;-58
2023/08/05 10:38:22;;;;;;;3.97;1.90;;;23.40;99.90;;;;;;7345062;32;21255;-59
2023/08/05 10:42:32;;;;;;;5.22;1.95;;;24.10;99.90;;;;;;7364997;32;20194;-58
2023/08/05 10:46:34;;;;;;;2.50;1.62;;;24.10;99.90;;;;;;7366967;32;20237;-59
2023/08/05 10:50:38;;;;;;;3.53;2.15;;;24.50;99.90;;;;;;7374221;32;20102;-59
2023/08/05 10:54:40;;;;;;;2.70;1.70;;;23.90;99.90;;;;;;7364285;32;20111;-58
2023/08/05 10:58:49;;;;;;;5.10;1.80;;;23.80;99.90;;;;;;7366847;32;20198;-60
2023/08/05 11:03:29;;;;;;;3.05;1.65;;;23.10;99.90;;;;;;7363764;32;20147;-59
2023/08/05 11:07:34;;;;;;;3.10;1.90;;;22.70;99.90;;;;;;7369249;32;20127;-59
2023/08/05 11:11:37;;;;;;;2.10;1.90;;;22.20;99.90;;;;;;7365269;32;20298;-59
2023/08/05 11:15:42;;;;;;;3.55;1.85;;;22.00;99.90;;;;;;7365452;32;20151;-58
2023/08/05 11:19:55;;;;;;;4.43;1.85;;;21.90;99.90;;;;;;7363943;32;20111;-58
2023/08/05 11:23:57;;;;;;;4.55;1.70;;;21.60;99.90;;;;;;7368290;32;20122;-55
2023/08/05 11:27:59;;;;;;;2.65;1.73;;;21.30;99.90;;;;;;7356639;32;20510;-58
2023/08/05 11:32:01;;;;;;;2.00;1.80;;;21.00;99.90;;;;;;7369699;32;20454;-58
2023/08/05 11:36:03;;;;;;;2.50;1.80;;;20.70;99.90;;;;;;7366206;32;20152;-58
2023/08/05 11:40:05;;;;;;;2.22;1.77;;;20.60;99.90;;;;;;7366602;32;20694;-59
2023/08/05 11:44:10;;;;;;;2.90;1.98;;;20.30;99.90;;;;;;7364611;32;20107;-58
2023/08/05 11:48:27;;;;;;;2.28;1.87;;;20.00;99.90;;;;;;7369165;32;20115;-59
2023/08/05 11:52:28;;;;;;;2.92;1.83;;;19.80;99.90;;;;;;7374164;32;20225;-59
2023/08/05 11:56:31;;;;;;;3.00;1.60;;;19.80;99.90;;;;;;7368177;32;20122;-59
2023/08/05 12:00:33;;;;;;;1.65;1.42;;;19.90;99.90;;;;;;7369651;32;20209;-58
2023/08/05 12:05:01;;;;;;;2.10;1.70;;;19.90;99.90;;;;;;7364749;32;20371;-58
2023/08/05 12:09:07;;;;;;;2.15;1.70;;;19.90;99.90;;;;;;7359105;32;20214;-59
2023/08/05 12:13:09;;;;;;;2.40;1.73;;;19.90;99.90;;;;;;7370063;32;20103;-58
2023/08/05 12:17:11;;;;;;;2.47;1.23;;;20.10;99.90;;;;;;7370953;32;20258;-59
2023/08/05 12:21:14;;;;;;;1.87;1.58;;;20.40;99.90;;;;;;7368810;32;20476;-59
2023/08/05 12:25:16;;;;;;;2.35;1.52;;;20.90;99.90;;;;;;7365222;32;20191;-59
2023/08/05 12:29:18;;;;;;;2.60;1.25;;;21.40;99.90;;;;;;7366086;32;20119;-58
2023/08/05 12:33:19;;;;;;;2.70;1.50;;;21.90;99.90;;;;;;7364507;32;20127;-58
2023/08/05 12:37:21;;;;;;;4.15;1.58;;;21.70;99.90;;;;;;7361808;32;20135;-57
2023/08/05 12:41:23;;;;;;;2.35;1.30;;;22.10;99.90;;;;;;7367459;32;20608;-56
2023/08/05 12:45:25;;;;;;;2.65;1.20;;;22.20;99.90;;;;;;7365762;32;20226;-57
2023/08/05 12:49:27;;;;;;;2.15;1.42;;;22.10;99.90;;;;;;7365179;32;20214;-56
2023/08/05 12:53:29;;;;;;;2.47;1.75;;;21.90;99.90;;;;;;7360852;32;20187;-56
2023/08/05 12:57:32;;;;;;;4.07;1.70;;;21.70;99.90;;;;;;7365488;32;20212;-56
2023/08/05 13:01:34;;;;;;;1.85;1.50;;;21.40;99.90;;;;;;7368625;32;20256;-55
2023/08/05 13:05:36;;;;;;;3.37;1.67;;;21.20;99.90;;;;;;7369704;32;20229;-55
2023/08/05 13:09:39;;;;;;;3.90;1.95;;;21.10;99.90;;;;;;7364491;32;20139;-54
2023/08/05 13:13:41;;;;;;;3.72;1.50;;;20.50;99.90;;;;;;7365724;32;20164;-54
2023/08/05 13:17:42;;;;;;;2.90;1.37;;;19.70;99.90;;;;;;7368176;32;20198;-55
2023/08/05 13:21:44;;;;;;;3.62;1.65;;;19.10;99.90;;;;;;7360446;32;20118;-57
2023/08/05 13:25:46;;;;;;;3.40;1.98;;;18.70;99.90;;;;;;7359908;32;20129;-58
2023/08/05 13:29:48;;;;;;;5.87;2.17;;;18.20;99.90;;;;;;7367925;32;20494;-59
2023/08/05 13:33:50;;;;;;;6.18;3.22;;;17.90;99.90;;;;;;7360724;32;20111;-57
2023/08/05 13:37:52;;;;;;;4.57;2.67;;;17.70;99.90;;;;;;7362925;32;20111;-57
2023/08/05 13:41:58;;;;;;;4.07;2.78;;;17.50;99.90;;;;;;7361497;32;20162;-57
2023/08/05 13:46:02;;;;;;;3.07;2.53;;;17.20;99.90;;;;;;7362267;32;20154;-57
2023/08/05 13:50:04;;;;;;;3.42;2.70;;;17.20;99.90;;;;;;7366240;32;20616;-57
2023/08/05 13:54:06;;;;;;;5.32;3.30;;;16.90;99.90;;;;;;7365379;32;20138;-58
2023/08/05 13:58:08;;;;;;;8.18;3.15;;;16.90;99.90;;;;;;7370859;32;20129;-57
2023/08/05 14:02:10;;;;;;;4.47;3.05;;;16.80;99.90;;;;;;7366491;32;20240;-59
2023/08/05 14:06:12;;;;;;;4.28;3.80;;;16.80;99.90;;;;;;7367372;32;20106;-58
2023/08/05 14:10:14;;;;;;;4.57;4.03;;;16.70;99.90;;;;;;7363603;32;20506;-58
2023/08/05 14:14:15;;;;;;;6.22;4.15;;;16.50;99.90;;;;;;7361768;32;20209;-58
2023/08/05 14:18:18;;;;;;;4.05;3.55;;;16.50;99.90;;;;;;7363358;32;20668;-57
2023/08/05 14:22:20;;;;;;;3.87;3.22;;;16.30;99.90;;;;;;7367537;32;20229;-57
2023/08/05 14:26:22;;;;;;;6.47;2.95;;;16.30;99.90;;;;;;7369819;32;20510;-59
2023/08/05 14:30:24;;;;;;;4.95;4.20;;;16.30;99.90;;;;;;7372006;32;20115;-58
2023/08/05 14:34:32;;;;;;;5.68;3.50;;;16.20;99.90;;;;;;7369463;32;20217;-58
2023/08/05 14:38:33;;;;;;;8.13;5.10;;;16.40;99.90;;;;;;7364709;32;20149;-58
2023/08/05 14:42:35;;;;;;;5.40;4.50;;;16.40;99.90;;;;;;7365173;32;20142;-57
2023/08/05 14:46:37;;;;;;;5.20;4.40;;;16.40;99.90;;;;;;7369416;32;20587;-58
2023/08/05 14:50:39;;;;;;;6.72;4.62;;;16.30;99.90;;;;;;7368175;32;20330;-58
2023/08/05 14:54:40;;;;;;;5.80;4.37;;;16.30;99.90;;;;;;7366363;32;20116;-58
2023/08/05 14:58:42;;;;;;;7.60;4.75;;;16.50;99.90;;;;;;7369663;32;20572;-57
2023/08/05 15:02:44;;;;;;;5.57;4.30;;;16.40;99.90;;;;;;7367906;32;20784;-57
2023/08/05 15:06:46;;;;;;;8.18;4.72;;;16.40;99.90;;;;;;7369292;32;20650;-58
2023/08/05 15:10:57;;;;;;;6.43;4.70;;;16.50;99.90;;;;;;7360545;32;20267;-57
2023/08/05 15:14:58;;;;;;;36.00;18.52;;;16.60;99.90;;;;;;7366078;32;20160;-57
2023/08/05 15:19:00;;;;;;;7.97;4.68;;;16.70;99.90;;;;;;7361668;32;20552;-58
2023/08/05 15:23:02;;;;;;;9.48;5.47;;;16.60;99.90;;;;;;7366763;32;20135;-57
2023/08/05 15:27:04;;;;;;;9.98;6.37;;;16.40;99.90;;;;;;7365358;32;20490;-58
2023/08/05 15:31:06;;;;;;;45.47;19.87;;;16.40;99.90;;;;;;7366089;32;20123;-57
2023/08/05 15:35:09;;;;;;;7.07;5.25;;;16.60;99.90;;;;;;7366504;32;20197;-57
2023/08/05 15:39:11;;;;;;;17.25;9.70;;;16.60;99.90;;;;;;7364184;32;20157;-57
2023/08/05 15:43:13;;;;;;;9.15;6.70;;;16.70;99.90;;;;;;7362420;32;20254;-57
2023/08/05 15:47:19;;;;;;;16.33;10.48;;;16.70;99.90;;;;;;7367323;32;20133;-57
2023/08/05 15:51:21;;;;;;;5.80;4.57;;;16.70;99.90;;;;;;7362005;32;20672;-57
2023/08/05 15:55:23;;;;;;;6.62;4.65;;;16.80;99.90;;;;;;7361860;32;20202;-57
2023/08/05 15:59:25;;;;;;;5.68;5.07;;;16.90;99.90;;;;;;7370697;32;20524;-57
2023/08/05 16:03:27;;;;;;;7.60;5.00;;;16.90;99.90;;;;;;7368371;32;20133;-57
2023/08/05 16:07:34;;;;;;;14.13;6.80;;;16.90;99.90;;;;;;7365993;32;20119;-56
2023/08/05 16:11:37;;;;;;;10.68;6.25;;;16.90;99.90;;;;;;7361244;32;20469;-57
2023/08/05 16:15:39;;;;;;;7.30;5.22;;;17.00;99.90;;;;;;7369054;32;20207;-57
2023/08/05 16:19:41;;;;;;;9.05;6.03;;;17.10;99.90;;;;;;7370543;32;20518;-57
2023/08/05 16:23:44;;;;;;;12.95;7.68;;;16.90;99.90;;;;;;7370758;32;20258;-57
2023/08/05 16:27:46;;;;;;;13.50;7.00;;;17.00;99.90;;;;;;7367778;32;20178;-58
2023/08/05 16:31:48;;;;;;;5.95;4.40;;;16.90;99.90;;;;;;7372592;32;20258;-56
2023/08/05 16:35:50;;;;;;;5.53;3.53;;;16.80;99.90;;;;;;7362165;32;20111;-56
2023/08/05 16:39:55;;;;;;;8.27;4.28;;;16.70;99.90;;;;;;7362462;32;20099;-57
2023/08/05 16:43:58;;;;;;;6.22;4.78;;;16.70;99.90;;;;;;7349433;32;20151;-56
2023/08/05 16:47:59;;;;;;;7.53;5.40;;;16.70;99.90;;;;;;7353924;32;20464;-56
2023/08/05 16:52:01;;;;;;;9.27;5.32;;;16.60;99.90;;;;;;7364447;32;20132;-56
2023/08/05 16:56:04;;;;;;;5.70;4.95;;;16.70;99.90;;;;;;7366733;32;20541;-56
2023/08/05 17:00:06;;;;;;;6.20;4.62;;;16.70;99.90;;;;;;7366325;32;20410;-56
2023/08/05 17:04:09;;;;;;;5.10;3.92;;;16.60;99.90;;;;;;7363676;32;20137;-56
2023/08/05 17:08:11;;;;;;;6.65;4.22;;;16.50;99.90;;;;;;7358493;32;20121;-56
2023/08/05 17:12:14;;;;;;;5.05;4.07;;;16.60;99.90;;;;;;7356821;32;20133;-56
2023/08/05 17:16:16;;;;;;;5.25;4.12;;;16.60;99.90;;;;;;7367447;32;20245;-57
2023/08/05 17:20:18;;;;;;;6.15;4.62;;;16.60;99.90;;;;;;7357744;32;20253;-57
2023/08/05 17:24:20;;;;;;;7.75;4.75;;;16.40;99.90;;;;;;7362195;32;20123;-56
2023/08/05 17:28:21;;;;;;;8.63;4.30;;;16.30;99.90;;;;;;7364986;32;20511;-57
2023/08/05 17:32:24;;;;;;;5.82;3.90;;;16.30;99.90;;;;;;7361884;32;20459;-57
2023/08/05 17:36:27;;;;;;;4.80;4.05;;;16.40;99.90;;;;;;7360632;32;20103;-57
2023/08/05 17:40:29;;;;;;;5.82;4.60;;;16.40;99.90;;;;;;7367621;32;20193;-57
2023/08/05 17:44:33;;;;;;;5.80;4.20;;;16.30;99.90;;;;;;7367232;32;20864;-57
2023/08/05 17:48:34;;;;;;;6.85;4.32;;;16.10;99.90;;;;;;7360569;32;20754;-57
2023/08/05 17:52:36;;;;;;;5.60;4.53;;;16.10;99.90;;;;;;7366441;32;20149;-57
2023/08/05 17:56:39;;;;;;;4.20;3.80;;;16.10;99.90;;;;;;7369687;32;20139;-57
2023/08/05 18:00:40;;;;;;;7.35;4.60;;;16.10;99.90;;;;;;7366925;32;20170;-56
2023/08/05 18:04:42;;;;;;;6.30;4.03;;;16.00;99.90;;;;;;7369492;32;20182;-57
2023/08/05 18:08:45;;;;;;;6.22;3.78;;;15.90;99.90;;;;;;7365914;32;20867;-56
2023/08/05 18:12:47;;;;;;;4.75;3.28;;;16.00;99.90;;;;;;7374292;32;20270;-56
2023/08/05 18:16:48;;;;;;;8.95;3.33;;;16.00;99.90;;;;;;7364544;32;20126;-56
2023/08/05 18:20:50;;;;;;;5.37;3.70;;;15.90;99.90;;;;;;7366178;32;20212;-56
2023/08/05 18:24:52;;;;;;;5.47;3.22;;;15.80;99.90;;;;;;7375289;32;20187;-57
2023/08/05 18:28:53;;;;;;;7.95;3.58;;;15.70;99.90;;;;;;7368451;32;20139;-55
2023/08/05 18:32:56;;;;;;;5.12;3.50;;;15.80;99.90;;;;;;7365960;32;20122;-58
2023/08/05 18:36:57;;;;;;;5.62;3.85;;;15.80;99.90;;;;;;7370124;32;20525;-56
2023/08/05 18:40:59;;;;;;;5.70;3.65;;;15.80;99.90;;;;;;7365198;32;20209;-56
2023/08/05 18:45:01;;;;;;;7.10;2.95;;;15.60;99.90;;;;;;7366709;32;20165;-57
2023/08/05 18:49:03;;;;;;;4.37;3.10;;;15.50;99.90;;;;;;7370384;32;20414;-57
2023/08/05 18:53:05;;;;;;;8.60;3.50;;;15.40;99.90;;;;;;7370095;32;20114;-57
2023/08/05 18:57:06;;;;;;;5.65;3.45;;;15.30;99.90;;;;;;7371694;32;20192;-57
2023/08/05 19:01:08;;;;;;;6.72;3.12;;;15.20;99.90;;;;;;7366407;32;20244;-56
2023/08/05 19:05:10;;;;;;;6.32;3.85;;;15.20;99.90;;;;;;7367497;32;20138;-57
2023/08/05 19:09:12;;;;;;;4.93;4.12;;;15.10;99.90;;;;;;7367510;32;20110;-56
2023/08/05 19:13:13;;;;;;;6.85;4.40;;;15.10;99.90;;;;;;7371538;32;20279;-56
2023/08/05 19:17:15;;;;;;;9.25;4.10;;;15.10;99.90;;;;;;7360891;32;20124;-56
2023/08/05 19:21:17;;;;;;;5.18;4.10;;;14.90;99.90;;;;;;7363254;32;20227;-57
2023/08/05 19:25:19;;;;;;;5.82;4.37;;;14.90;99.90;;;;;;7362757;32;20605;-55
2023/08/05 19:29:20;;;;;;;5.18;4.12;;;14.90;99.90;;;;;;7358432;32;20119;-55
2023/08/05 19:33:22;;;;;;;6.32;4.55;;;14.80;99.90;;;;;;7367832;32;20682;-55
2023/08/05 19:37:24;;;;;;;6.97;3.72;;;14.80;99.90;;;;;;7370269;32;21876;-56
2023/08/05 19:41:26;;;;;;;11.88;4.62;;;14.80;99.90;;;;;;7376337;32;20103;-55
2023/08/05 19:45:27;;;;;;;6.15;4.20;;;14.80;99.90;;;;;;7366640;32;20104;-55
2023/08/05 19:49:29;;;;;;;4.87;4.20;;;14.80;99.90;;;;;;7374522;32;20635;-57
2023/08/05 19:53:32;;;;;;;6.75;4.32;;;14.90;99.90;;;;;;7368099;32;20106;-55
2023/08/05 19:57:33;;;;;;;6.28;4.93;;;14.90;99.90;;;;;;7373723;32;20118;-57
2023/08/05 20:01:35;;;;;;;8.07;5.12;;;14.90;99.90;;;;;;7363117;32;20122;-56
2023/08/05 20:05:37;;;;;;;7.10;4.68;;;14.90;99.90;;;;;;7371669;32;20181;-56
2023/08/05 20:09:39;;;;;;;6.43;4.20;;;14.80;99.90;;;;;;7374369;32;20240;-55
2023/08/05 20:13:40;;;;;;;5.03;4.30;;;14.80;99.90;;;;;;7367585;32;20187;-55
2023/08/05 20:17:42;;;;;;;5.82;4.00;;;14.80;99.90;;;;;;7366005;32;20125;-55
2023/08/05 20:21:44;;;;;;;7.45;4.40;;;14.80;99.90;;;;;;7363195;32;20103;-55
2023/08/05 20:25:47;;;;;;;5.40;3.65;;;14.80;99.90;;;;;;7363175;32;20148;-56
2023/08/05 20:29:48;;;;;;;7.37;4.20;;;14.80;99.90;;;;;;7367483;32;20107;-56
2023/08/05 20:33:50;;;;;;;8.23;4.18;;;14.90;99.90;;;;;;7362398;32;20182;-55
2023/08/05 20:37:52;;;;;;;7.22;3.67;;;14.90;99.90;;;;;;7362552;32;20125;-54
2023/08/05 20:41:54;;;;;;;9.55;3.60;;;14.90;99.90;;;;;;7367519;32;20161;-55
2023/08/05 20:45:55;;;;;;;5.70;4.60;;;15.00;99.90;;;;;;7365810;32;20125;-54
2023/08/05 20:49:57;;;;;;;5.37;3.75;;;14.90;99.90;;;;;;7366404;32;20219;-55
2023/08/05 20:53:59;;;;;;;9.55;4.40;;;15.00;99.90;;;;;;7369672;32;20869;-55
2023/08/05 20:58:01;;;;;;;7.00;3.60;;;14.90;99.90;;;;;;7366656;32;20170;-55